sensor_id;sensor_type;location;lat;lon;timestamp;P1;durP1;ratioP1;P2;durP2;ratioP2
1136;SDS011;557;48.466;7.950;2022-08-21T00:02:14;3.93;;;2.83;;
1136;SDS011;557;48.466;7.950;2022-08-21T00:05:00;3.40;;;2.70;;
1136;SDS011;557;48.466;7.950;2022-08-21T00:07:47;4.40;;;2.70;;
1136;SDS011;557;48.466;7.950;2022-08-21T00:10:33;4.27;;;2.87;;
1136;SDS011;557;48.466;7.950;2022-08-21T00:13:19;3.47;;;2.63;;
1136;SDS011;557;48.466;7.950;2022-08-21T00:16:05;3.50;;;3.10;;
1136;SDS011;557;48.466;7.950;2022-08-21T00:18:52;3.60;;;2.83;;
1136;SDS011;557;48.466;7.950;2022-08-21T00:21:38;4.50;;;2.90;;
1136;SDS011;557;48.466;7.950;2022-08-21T00:24:24;4.90;;;2.80;;
1136;SDS011;557;48.466;7.950;2022-08-21T00:27:10;3.60;;;2.70;;
1136;SDS011;557;48.466;7.950;2022-08-21T00:29:56;3.20;;;2.70;;
1136;SDS011;557;48.466;7.950;2022-08-21T00:32:42;2.90;;;2.53;;
1136;SDS011;557;48.466;7.950;2022-08-21T00:35:32;5.93;;;2.70;;
1136;SDS011;557;48.466;7.950;2022-08-21T00:38:20;3.30;;;2.60;;
1136;SDS011;557;48.466;7.950;2022-08-21T00:41:06;2.80;;;2.60;;
1136;SDS011;557;48.466;7.950;2022-08-21T00:43:54;4.50;;;2.53;;
1136;SDS011;557;48.466;7.950;2022-08-21T00:46:40;3.90;;;2.73;;
1136;SDS011;557;48.466;7.950;2022-08-21T00:49:27;4.77;;;2.97;;
1136;SDS011;557;48.466;7.950;2022-08-21T00:52:14;3.10;;;2.30;;
1136;SDS011;557;48.466;7.950;2022-08-21T00:55:03;3.10;;;2.37;;
1136;SDS011;557;48.466;7.950;2022-08-21T00:57:53;5.20;;;2.30;;
1136;SDS011;557;48.466;7.950;2022-08-21T01:00:43;5.07;;;2.50;;
1136;SDS011;557;48.466;7.950;2022-08-21T01:03:31;3.47;;;2.57;;
1136;SDS011;557;48.466;7.950;2022-08-21T01:06:18;3.30;;;2.70;;
1136;SDS011;557;48.466;7.950;2022-08-21T01:09:06;4.53;;;3.17;;
1136;SDS011;557;48.466;7.950;2022-08-21T01:11:52;3.00;;;2.67;;
1136;SDS011;557;48.466;7.950;2022-08-21T01:14:38;4.70;;;2.90;;
1136;SDS011;557;48.466;7.950;2022-08-21T01:17:26;2.70;;;2.50;;
1136;SDS011;557;48.466;7.950;2022-08-21T01:20:12;3.90;;;3.13;;
1136;SDS011;557;48.466;7.950;2022-08-21T01:22:59;3.23;;;2.93;;
1136;SDS011;557;48.466;7.950;2022-08-21T01:25:45;4.07;;;2.43;;
1136;SDS011;557;48.466;7.950;2022-08-21T01:28:32;3.97;;;2.97;;
1136;SDS011;557;48.466;7.950;2022-08-21T01:31:22;5.23;;;2.70;;
1136;SDS011;557;48.466;7.950;2022-08-21T01:34:09;4.43;;;2.77;;
1136;SDS011;557;48.466;7.950;2022-08-21T01:36:55;3.50;;;2.90;;
1136;SDS011;557;48.466;7.950;2022-08-21T01:39:42;3.93;;;2.60;;
1136;SDS011;557;48.466;7.950;2022-08-21T01:42:35;4.27;;;3.17;;
1136;SDS011;557;48.466;7.950;2022-08-21T01:45:21;3.27;;;2.53;;
1136;SDS011;557;48.466;7.950;2022-08-21T01:48:07;3.53;;;2.60;;
1136;SDS011;557;48.466;7.950;2022-08-21T01:50:53;4.30;;;2.90;;
1136;SDS011;557;48.466;7.950;2022-08-21T01:53:38;3.53;;;3.03;;
1136;SDS011;557;48.466;7.950;2022-08-21T01:56:25;4.00;;;2.87;;
1136;SDS011;557;48.466;7.950;2022-08-21T01:59:12;5.90;;;2.90;;
1136;SDS011;557;48.466;7.950;2022-08-21T02:01:57;4.10;;;3.23;;
1136;SDS011;557;48.466;7.950;2022-08-21T02:04:43;3.90;;;2.60;;
1136;SDS011;557;48.466;7.950;2022-08-21T02:07:34;3.53;;;3.20;;
1136;SDS011;557;48.466;7.950;2022-08-21T02:10:22;3.23;;;2.93;;
1136;SDS011;557;48.466;7.950;2022-08-21T02:13:11;4.60;;;2.90;;
1136;SDS011;557;48.466;7.950;2022-08-21T02:19:14;3.63;;;2.70;;
1136;SDS011;557;48.466;7.950;2022-08-21T02:22:01;3.33;;;3.00;;
1136;SDS011;557;48.466;7.950;2022-08-21T02:24:47;3.70;;;2.93;;
1136;SDS011;557;48.466;7.950;2022-08-21T02:27:36;3.57;;;3.00;;
1136;SDS011;557;48.466;7.950;2022-08-21T02:30:26;3.80;;;3.40;;
1136;SDS011;557;48.466;7.950;2022-08-21T02:33:15;3.60;;;3.07;;
1136;SDS011;557;48.466;7.950;2022-08-21T02:36:01;3.57;;;3.00;;
1136;SDS011;557;48.466;7.950;2022-08-21T02:38:48;3.30;;;2.80;;
1136;SDS011;557;48.466;7.950;2022-08-21T02:41:34;4.50;;;3.30;;
1136;SDS011;557;48.466;7.950;2022-08-21T02:44:20;5.13;;;3.00;;
1136;SDS011;557;48.466;7.950;2022-08-21T02:47:07;5.03;;;3.37;;
1136;SDS011;557;48.466;7.950;2022-08-21T02:49:52;3.33;;;2.70;;
1136;SDS011;557;48.466;7.950;2022-08-21T02:52:38;3.87;;;3.33;;
1136;SDS011;557;48.466;7.950;2022-08-21T02:55:25;3.73;;;2.70;;
1136;SDS011;557;48.466;7.950;2022-08-21T02:58:13;3.00;;;2.67;;
1136;SDS011;557;48.466;7.950;2022-08-21T03:01:01;3.70;;;2.93;;
1136;SDS011;557;48.466;7.950;2022-08-21T03:03:49;6.07;;;2.80;;
1136;SDS011;557;48.466;7.950;2022-08-21T03:06:40;11.03;;;2.83;;
1136;SDS011;557;48.466;7.950;2022-08-21T03:09:26;3.83;;;2.80;;
1136;SDS011;557;48.466;7.950;2022-08-21T03:12:12;2.93;;;2.63;;
1136;SDS011;557;48.466;7.950;2022-08-21T03:14:57;4.20;;;2.80;;
1136;SDS011;557;48.466;7.950;2022-08-21T03:17:43;4.47;;;3.07;;
1136;SDS011;557;48.466;7.950;2022-08-21T03:20:31;3.77;;;2.53;;
1136;SDS011;557;48.466;7.950;2022-08-21T03:23:18;4.20;;;3.10;;
1136;SDS011;557;48.466;7.950;2022-08-21T03:26:03;4.23;;;2.63;;
1136;SDS011;557;48.466;7.950;2022-08-21T03:28:49;4.93;;;2.90;;
1136;SDS011;557;48.466;7.950;2022-08-21T03:31:35;5.33;;;3.07;;
1136;SDS011;557;48.466;7.950;2022-08-21T03:34:21;3.33;;;2.77;;
1136;SDS011;557;48.466;7.950;2022-08-21T03:37:22;6.50;;;3.03;;
1136;SDS011;557;48.466;7.950;2022-08-21T03:40:08;5.33;;;3.20;;
1136;SDS011;557;48.466;7.950;2022-08-21T03:42:55;5.30;;;3.07;;
1136;SDS011;557;48.466;7.950;2022-08-21T03:45:40;3.70;;;3.03;;
1136;SDS011;557;48.466;7.950;2022-08-21T03:48:26;6.60;;;3.00;;
1136;SDS011;557;48.466;7.950;2022-08-21T03:51:12;9.27;;;3.40;;
1136;SDS011;557;48.466;7.950;2022-08-21T03:53:59;3.90;;;2.83;;
1136;SDS011;557;48.466;7.950;2022-08-21T03:56:44;5.00;;;3.10;;
1136;SDS011;557;48.466;7.950;2022-08-21T03:59:30;4.13;;;3.13;;
1136;SDS011;557;48.466;7.950;2022-08-21T04:02:16;4.93;;;3.07;;
1136;SDS011;557;48.466;7.950;2022-08-21T04:05:05;3.80;;;3.30;;
1136;SDS011;557;48.466;7.950;2022-08-21T04:07:52;5.13;;;3.43;;
1136;SDS011;557;48.466;7.950;2022-08-21T04:10:41;4.70;;;3.07;;
1136;SDS011;557;48.466;7.950;2022-08-21T04:13:30;5.60;;;3.73;;
1136;SDS011;557;48.466;7.950;2022-08-21T04:16:15;4.63;;;3.37;;
1136;SDS011;557;48.466;7.950;2022-08-21T04:19:01;4.80;;;3.50;;
1136;SDS011;557;48.466;7.950;2022-08-21T04:21:47;6.90;;;4.47;;
1136;SDS011;557;48.466;7.950;2022-08-21T04:24:33;4.43;;;3.27;;
1136;SDS011;557;48.466;7.950;2022-08-21T04:27:20;4.37;;;3.50;;
1136;SDS011;557;48.466;7.950;2022-08-21T04:30:06;4.43;;;3.13;;
1136;SDS011;557;48.466;7.950;2022-08-21T04:32:53;5.10;;;3.80;;
1136;SDS011;557;48.466;7.950;2022-08-21T04:35:41;4.73;;;3.10;;
1136;SDS011;557;48.466;7.950;2022-08-21T04:38:27;6.53;;;3.30;;
1136;SDS011;557;48.466;7.950;2022-08-21T04:41:14;3.47;;;3.00;;
1136;SDS011;557;48.466;7.950;2022-08-21T04:44:02;4.77;;;4.00;;
1136;SDS011;557;48.466;7.950;2022-08-21T04:46:48;6.60;;;3.27;;
1136;SDS011;557;48.466;7.950;2022-08-21T04:49:34;4.90;;;3.10;;
1136;SDS011;557;48.466;7.950;2022-08-21T04:52:21;7.50;;;3.20;;
1136;SDS011;557;48.466;7.950;2022-08-21T04:55:07;4.03;;;3.17;;
1136;SDS011;557;48.466;7.950;2022-08-21T04:57:53;4.97;;;3.50;;
1136;SDS011;557;48.466;7.950;2022-08-21T05:00:41;5.37;;;3.03;;
1136;SDS011;557;48.466;7.950;2022-08-21T05:03:27;9.37;;;3.13;;
1136;SDS011;557;48.466;7.950;2022-08-21T05:06:15;6.20;;;3.00;;
1136;SDS011;557;48.466;7.950;2022-08-21T05:09:01;5.60;;;2.90;;
1136;SDS011;557;48.466;7.950;2022-08-21T05:11:48;4.43;;;3.23;;
1136;SDS011;557;48.466;7.950;2022-08-21T05:14:35;4.00;;;3.17;;
1136;SDS011;557;48.466;7.950;2022-08-21T05:17:22;4.17;;;2.97;;
1136;SDS011;557;48.466;7.950;2022-08-21T05:20:08;5.10;;;3.77;;
1136;SDS011;557;48.466;7.950;2022-08-21T05:22:54;4.50;;;3.00;;
1136;SDS011;557;48.466;7.950;2022-08-21T05:25:41;4.47;;;3.07;;
1136;SDS011;557;48.466;7.950;2022-08-21T05:28:27;4.27;;;2.70;;
1136;SDS011;557;48.466;7.950;2022-08-21T05:31:13;4.43;;;3.50;;
1136;SDS011;557;48.466;7.950;2022-08-21T05:34:00;4.20;;;3.27;;
1136;SDS011;557;48.466;7.950;2022-08-21T05:36:46;3.40;;;2.70;;
1136;SDS011;557;48.466;7.950;2022-08-21T05:39:32;2.97;;;2.67;;
1136;SDS011;557;48.466;7.950;2022-08-21T05:42:18;5.03;;;3.23;;
1136;SDS011;557;48.466;7.950;2022-08-21T05:45:04;3.80;;;2.63;;
1136;SDS011;557;48.466;7.950;2022-08-21T05:47:50;3.80;;;3.33;;
1136;SDS011;557;48.466;7.950;2022-08-21T05:50:37;4.13;;;3.03;;
1136;SDS011;557;48.466;7.950;2022-08-21T05:53:23;3.90;;;2.80;;
1136;SDS011;557;48.466;7.950;2022-08-21T05:56:10;5.60;;;3.80;;
1136;SDS011;557;48.466;7.950;2022-08-21T05:58:58;4.40;;;3.17;;
1136;SDS011;557;48.466;7.950;2022-08-21T06:01:43;4.90;;;3.10;;
1136;SDS011;557;48.466;7.950;2022-08-21T06:04:30;4.10;;;2.90;;
1136;SDS011;557;48.466;7.950;2022-08-21T06:07:21;5.37;;;3.33;;
1136;SDS011;557;48.466;7.950;2022-08-21T06:10:07;4.50;;;3.30;;
1136;SDS011;557;48.466;7.950;2022-08-21T06:12:54;7.73;;;3.13;;
1136;SDS011;557;48.466;7.950;2022-08-21T06:15:40;4.10;;;3.00;;
1136;SDS011;557;48.466;7.950;2022-08-21T06:18:26;3.50;;;2.93;;
1136;SDS011;557;48.466;7.950;2022-08-21T06:21:12;5.37;;;3.23;;
1136;SDS011;557;48.466;7.950;2022-08-21T06:24:00;4.13;;;2.97;;
1136;SDS011;557;48.466;7.950;2022-08-21T06:26:45;5.77;;;3.23;;
1136;SDS011;557;48.466;7.950;2022-08-21T06:29:31;3.73;;;3.00;;
1136;SDS011;557;48.466;7.950;2022-08-21T06:32:17;3.73;;;2.63;;
1136;SDS011;557;48.466;7.950;2022-08-21T06:35:03;3.97;;;2.97;;
1136;SDS011;557;48.466;7.950;2022-08-21T06:37:50;4.70;;;3.30;;
1136;SDS011;557;48.466;7.950;2022-08-21T06:40:37;4.63;;;3.47;;
1136;SDS011;557;48.466;7.950;2022-08-21T06:43:24;5.03;;;3.03;;
1136;SDS011;557;48.466;7.950;2022-08-21T06:46:09;4.83;;;3.87;;
1136;SDS011;557;48.466;7.950;2022-08-21T06:48:55;3.83;;;2.97;;
1136;SDS011;557;48.466;7.950;2022-08-21T06:51:42;3.77;;;2.90;;
1136;SDS011;557;48.466;7.950;2022-08-21T06:54:27;3.90;;;2.90;;
1136;SDS011;557;48.466;7.950;2022-08-21T06:57:15;4.87;;;3.50;;
1136;SDS011;557;48.466;7.950;2022-08-21T07:00:01;3.77;;;3.37;;
1136;SDS011;557;48.466;7.950;2022-08-21T07:02:48;4.90;;;3.60;;
1136;SDS011;557;48.466;7.950;2022-08-21T07:05:34;4.53;;;3.03;;
1136;SDS011;557;48.466;7.950;2022-08-21T07:08:20;4.10;;;3.07;;
1136;SDS011;557;48.466;7.950;2022-08-21T07:11:07;5.03;;;3.30;;
1136;SDS011;557;48.466;7.950;2022-08-21T07:13:58;4.23;;;2.97;;
1136;SDS011;557;48.466;7.950;2022-08-21T07:16:44;5.13;;;3.43;;
1136;SDS011;557;48.466;7.950;2022-08-21T07:19:30;4.03;;;3.20;;
1136;SDS011;557;48.466;7.950;2022-08-21T07:22:15;5.43;;;2.90;;
1136;SDS011;557;48.466;7.950;2022-08-21T07:25:03;4.03;;;3.37;;
1136;SDS011;557;48.466;7.950;2022-08-21T07:27:50;5.07;;;3.43;;
1136;SDS011;557;48.466;7.950;2022-08-21T07:30:37;5.43;;;3.97;;
1136;SDS011;557;48.466;7.950;2022-08-21T07:33:22;3.87;;;3.47;;
1136;SDS011;557;48.466;7.950;2022-08-21T07:36:09;3.20;;;2.90;;
1136;SDS011;557;48.466;7.950;2022-08-21T07:38:55;4.17;;;3.77;;
1136;SDS011;557;48.466;7.950;2022-08-21T07:41:41;5.93;;;3.87;;
1136;SDS011;557;48.466;7.950;2022-08-21T07:44:26;4.30;;;3.90;;
1136;SDS011;557;48.466;7.950;2022-08-21T07:47:13;4.30;;;3.90;;
1136;SDS011;557;48.466;7.950;2022-08-21T07:49:59;4.77;;;4.37;;
1136;SDS011;557;48.466;7.950;2022-08-21T07:52:45;7.30;;;4.30;;
1136;SDS011;557;48.466;7.950;2022-08-21T07:55:31;4.93;;;4.53;;
1136;SDS011;557;48.466;7.950;2022-08-21T07:58:16;5.00;;;4.40;;
1136;SDS011;557;48.466;7.950;2022-08-21T08:01:02;6.83;;;5.53;;
1136;SDS011;557;48.466;7.950;2022-08-21T08:03:49;5.53;;;5.10;;
1136;SDS011;557;48.466;7.950;2022-08-21T08:06:36;5.83;;;5.27;;
1136;SDS011;557;48.466;7.950;2022-08-21T08:09:21;6.23;;;5.70;;
1136;SDS011;557;48.466;7.950;2022-08-21T08:12:07;6.10;;;5.60;;
1136;SDS011;557;48.466;7.950;2022-08-21T08:14:53;6.30;;;5.77;;
1136;SDS011;557;48.466;7.950;2022-08-21T08:17:39;6.70;;;6.20;;
1136;SDS011;557;48.466;7.950;2022-08-21T08:20:26;7.90;;;7.30;;
1136;SDS011;557;48.466;7.950;2022-08-21T08:23:13;7.23;;;6.73;;
1136;SDS011;557;48.466;7.950;2022-08-21T08:25:59;7.83;;;7.17;;
1136;SDS011;557;48.466;7.950;2022-08-21T08:28:46;7.67;;;7.07;;
1136;SDS011;557;48.466;7.950;2022-08-21T08:31:32;7.63;;;7.03;;
1136;SDS011;557;48.466;7.950;2022-08-21T08:34:18;7.87;;;7.37;;
1136;SDS011;557;48.466;7.950;2022-08-21T08:37:07;8.57;;;7.97;;
1136;SDS011;557;48.466;7.950;2022-08-21T08:39:54;9.23;;;8.53;;
1136;SDS011;557;48.466;7.950;2022-08-21T08:42:40;8.82;;;8.32;;
1136;SDS011;557;48.466;7.950;2022-08-21T08:45:26;10.05;;;9.43;;
1136;SDS011;557;48.466;7.950;2022-08-21T08:48:17;11.20;;;10.50;;
1136;SDS011;557;48.466;7.950;2022-08-21T08:51:18;11.03;;;10.33;;
1136;SDS011;557;48.466;7.950;2022-08-21T08:54:11;10.32;;;9.52;;
1136;SDS011;557;48.466;7.950;2022-08-21T08:57:00;10.52;;;9.82;;
1136;SDS011;557;48.466;7.950;2022-08-21T08:59:48;10.95;;;10.30;;
1136;SDS011;557;48.466;7.950;2022-08-21T09:02:38;11.52;;;10.90;;
1136;SDS011;557;48.466;7.950;2022-08-21T09:05:25;11.30;;;10.60;;
1136;SDS011;557;48.466;7.950;2022-08-21T09:08:28;10.63;;;10.13;;
1136;SDS011;557;48.466;7.950;2022-08-21T09:15:06;12.88;;;12.05;;
1136;SDS011;557;48.466;7.950;2022-08-21T09:18:20;12.25;;;11.55;;
1136;SDS011;557;48.466;7.950;2022-08-21T09:21:15;13.13;;;12.15;;
1136;SDS011;557;48.466;7.950;2022-08-21T09:24:16;13.10;;;12.30;;
1136;SDS011;557;48.466;7.950;2022-08-21T09:27:11;13.38;;;12.45;;
1136;SDS011;557;48.466;7.950;2022-08-21T09:29:59;13.07;;;12.27;;
1136;SDS011;557;48.466;7.950;2022-08-21T09:32:47;13.18;;;12.40;;
1136;SDS011;557;48.466;7.950;2022-08-21T09:35:32;13.37;;;12.37;;
1136;SDS011;557;48.466;7.950;2022-08-21T09:38:24;13.18;;;12.38;;
1136;SDS011;557;48.466;7.950;2022-08-21T09:41:12;12.50;;;11.70;;
1136;SDS011;557;48.466;7.950;2022-08-21T09:43:58;13.13;;;12.30;;
1136;SDS011;557;48.466;7.950;2022-08-21T09:46:49;13.65;;;12.70;;
1136;SDS011;557;48.466;7.950;2022-08-21T09:49:39;13.90;;;13.00;;
1136;SDS011;557;48.466;7.950;2022-08-21T09:52:26;13.05;;;12.32;;
1136;SDS011;557;48.466;7.950;2022-08-21T09:55:15;13.55;;;12.80;;
1136;SDS011;557;48.466;7.950;2022-08-21T09:58:17;13.80;;;12.90;;
1136;SDS011;557;48.466;7.950;2022-08-21T10:01:05;13.23;;;12.45;;
1136;SDS011;557;48.466;7.950;2022-08-21T10:04:02;13.13;;;12.30;;
1136;SDS011;557;48.466;7.950;2022-08-21T10:06:49;12.60;;;11.85;;
1136;SDS011;557;48.466;7.950;2022-08-21T10:09:35;12.90;;;12.10;;
1136;SDS011;557;48.466;7.950;2022-08-21T10:12:22;12.35;;;11.50;;
1136;SDS011;557;48.466;7.950;2022-08-21T10:15:16;12.70;;;11.82;;
1136;SDS011;557;48.466;7.950;2022-08-21T10:18:08;13.30;;;12.60;;
1136;SDS011;557;48.466;7.950;2022-08-21T10:21:01;13.55;;;12.52;;
1136;SDS011;557;48.466;7.950;2022-08-21T10:23:54;13.25;;;12.45;;
1136;SDS011;557;48.466;7.950;2022-08-21T10:26:51;13.40;;;12.70;;
1136;SDS011;557;48.466;7.950;2022-08-21T10:29:46;13.27;;;12.50;;
1136;SDS011;557;48.466;7.950;2022-08-21T10:32:53;13.10;;;12.40;;
1136;SDS011;557;48.466;7.950;2022-08-21T10:35:48;14.20;;;13.15;;
1136;SDS011;557;48.466;7.950;2022-08-21T10:41:55;13.25;;;12.45;;
1136;SDS011;557;48.466;7.950;2022-08-21T10:45:02;13.82;;;12.90;;
1136;SDS011;557;48.466;7.950;2022-08-21T10:47:57;14.77;;;13.77;;
1136;SDS011;557;48.466;7.950;2022-08-21T10:50:50;14.23;;;13.32;;
1136;SDS011;557;48.466;7.950;2022-08-21T10:53:42;14.10;;;13.20;;
1136;SDS011;557;48.466;7.950;2022-08-21T10:56:38;14.00;;;13.20;;
1136;SDS011;557;48.466;7.950;2022-08-21T10:59:28;14.18;;;13.38;;
1136;SDS011;557;48.466;7.950;2022-08-21T11:02:19;14.50;;;13.70;;
1136;SDS011;557;48.466;7.950;2022-08-21T11:05:12;14.00;;;13.23;;
1136;SDS011;557;48.466;7.950;2022-08-21T11:08:03;13.98;;;13.00;;
1136;SDS011;557;48.466;7.950;2022-08-21T11:10:55;13.35;;;12.65;;
1136;SDS011;557;48.466;7.950;2022-08-21T11:13:48;13.52;;;12.63;;
1136;SDS011;557;48.466;7.950;2022-08-21T11:16:39;13.68;;;12.70;;
1136;SDS011;557;48.466;7.950;2022-08-21T11:19:28;13.63;;;12.82;;
1136;SDS011;557;48.466;7.950;2022-08-21T11:22:19;14.23;;;13.32;;
1136;SDS011;557;48.466;7.950;2022-08-21T11:25:10;14.20;;;13.38;;
1136;SDS011;557;48.466;7.950;2022-08-21T11:28:03;14.43;;;13.63;;
1136;SDS011;557;48.466;7.950;2022-08-21T11:31:01;16.20;;;15.30;;
1136;SDS011;557;48.466;7.950;2022-08-21T11:34:05;15.15;;;14.18;;
1136;SDS011;557;48.466;7.950;2022-08-21T11:37:01;14.98;;;14.10;;
1136;SDS011;557;48.466;7.950;2022-08-21T11:39:56;15.27;;;14.40;;
1136;SDS011;557;48.466;7.950;2022-08-21T11:42:50;14.95;;;14.15;;
1136;SDS011;557;48.466;7.950;2022-08-21T11:45:47;14.75;;;13.85;;
1136;SDS011;557;48.466;7.950;2022-08-21T11:48:40;14.68;;;13.90;;
1136;SDS011;557;48.466;7.950;2022-08-21T11:51:34;15.75;;;14.65;;
1136;SDS011;557;48.466;7.950;2022-08-21T11:54:25;14.95;;;14.10;;
1136;SDS011;557;48.466;7.950;2022-08-21T11:57:17;15.07;;;14.18;;
1136;SDS011;557;48.466;7.950;2022-08-21T12:00:11;13.98;;;13.27;;
1136;SDS011;557;48.466;7.950;2022-08-21T12:03:06;15.20;;;14.20;;
1136;SDS011;557;48.466;7.950;2022-08-21T12:05:57;15.13;;;14.30;;
1136;SDS011;557;48.466;7.950;2022-08-21T12:08:46;14.85;;;14.05;;
1136;SDS011;557;48.466;7.950;2022-08-21T12:11:46;15.00;;;14.20;;
1136;SDS011;557;48.466;7.950;2022-08-21T12:14:38;15.43;;;14.63;;
1136;SDS011;557;48.466;7.950;2022-08-21T12:17:34;16.90;;;15.75;;
1136;SDS011;557;48.466;7.950;2022-08-21T12:20:26;15.68;;;14.88;;
1136;SDS011;557;48.466;7.950;2022-08-21T12:23:29;15.70;;;14.80;;
1136;SDS011;557;48.466;7.950;2022-08-21T12:26:24;16.08;;;15.18;;
1136;SDS011;557;48.466;7.950;2022-08-21T12:29:14;16.30;;;15.50;;
1136;SDS011;557;48.466;7.950;2022-08-21T12:32:20;16.20;;;15.40;;
1136;SDS011;557;48.466;7.950;2022-08-21T12:35:12;17.23;;;16.30;;
1136;SDS011;557;48.466;7.950;2022-08-21T12:38:02;16.42;;;15.63;;
1136;SDS011;557;48.466;7.950;2022-08-21T12:40:56;16.27;;;15.38;;
1136;SDS011;557;48.466;7.950;2022-08-21T12:43:46;16.70;;;15.73;;
1136;SDS011;557;48.466;7.950;2022-08-21T12:46:37;16.52;;;15.45;;
1136;SDS011;557;48.466;7.950;2022-08-21T12:49:32;16.83;;;15.88;;
1136;SDS011;557;48.466;7.950;2022-08-21T12:52:20;16.50;;;15.70;;
1136;SDS011;557;48.466;7.950;2022-08-21T12:55:11;16.05;;;15.25;;
1136;SDS011;557;48.466;7.950;2022-08-21T12:58:00;16.48;;;15.68;;
1136;SDS011;557;48.466;7.950;2022-08-21T13:00:49;17.10;;;16.20;;
1136;SDS011;557;48.466;7.950;2022-08-21T13:03:37;16.40;;;15.60;;
1136;SDS011;557;48.466;7.950;2022-08-21T13:06:24;16.20;;;15.38;;
1136;SDS011;557;48.466;7.950;2022-08-21T13:09:15;16.42;;;15.43;;
1136;SDS011;557;48.466;7.950;2022-08-21T13:12:06;16.45;;;15.65;;
1136;SDS011;557;48.466;7.950;2022-08-21T13:14:56;16.83;;;15.93;;
1136;SDS011;557;48.466;7.950;2022-08-21T13:17:46;17.17;;;16.27;;
1136;SDS011;557;48.466;7.950;2022-08-21T13:20:34;16.73;;;15.88;;
1136;SDS011;557;48.466;7.950;2022-08-21T13:23:23;17.48;;;16.30;;
1136;SDS011;557;48.466;7.950;2022-08-21T13:26:13;16.63;;;15.82;;
1136;SDS011;557;48.466;7.950;2022-08-21T13:29:05;17.00;;;16.10;;
1136;SDS011;557;48.466;7.950;2022-08-21T13:31:59;16.45;;;15.52;;
1136;SDS011;557;48.466;7.950;2022-08-21T13:34:46;16.65;;;15.75;;
1136;SDS011;557;48.466;7.950;2022-08-21T13:37:35;16.40;;;15.60;;
1136;SDS011;557;48.466;7.950;2022-08-21T13:40:24;16.30;;;15.50;;
1136;SDS011;557;48.466;7.950;2022-08-21T13:43:11;16.70;;;15.90;;
1136;SDS011;557;48.466;7.950;2022-08-21T13:46:01;16.30;;;15.50;;
1136;SDS011;557;48.466;7.950;2022-08-21T13:48:53;16.50;;;15.70;;
1136;SDS011;557;48.466;7.950;2022-08-21T13:51:40;16.35;;;15.55;;
1136;SDS011;557;48.466;7.950;2022-08-21T13:54:28;16.17;;;15.38;;
1136;SDS011;557;48.466;7.950;2022-08-21T13:57:24;17.00;;;16.02;;
1136;SDS011;557;48.466;7.950;2022-08-21T14:00:13;16.88;;;16.02;;
1136;SDS011;557;48.466;7.950;2022-08-21T14:03:03;16.13;;;15.32;;
1136;SDS011;557;48.466;7.950;2022-08-21T14:05:53;16.42;;;15.63;;
1136;SDS011;557;48.466;7.950;2022-08-21T14:08:39;16.88;;;15.98;;
1136;SDS011;557;48.466;7.950;2022-08-21T14:11:27;16.55;;;15.75;;
1136;SDS011;557;48.466;7.950;2022-08-21T14:14:19;16.80;;;15.90;;
1136;SDS011;557;48.466;7.950;2022-08-21T14:17:09;17.75;;;16.60;;
1136;SDS011;557;48.466;7.950;2022-08-21T14:19:58;16.55;;;15.75;;
1136;SDS011;557;48.466;7.950;2022-08-21T14:22:46;16.98;;;16.05;;
1136;SDS011;557;48.466;7.950;2022-08-21T14:25:37;16.98;;;16.17;;
1136;SDS011;557;48.466;7.950;2022-08-21T14:28:28;17.20;;;16.30;;
1136;SDS011;557;48.466;7.950;2022-08-21T14:31:17;16.58;;;15.77;;
1136;SDS011;557;48.466;7.950;2022-08-21T14:34:05;16.90;;;16.10;;
1136;SDS011;557;48.466;7.950;2022-08-21T14:36:51;16.75;;;15.85;;
1136;SDS011;557;48.466;7.950;2022-08-21T14:39:39;16.80;;;16.00;;
1136;SDS011;557;48.466;7.950;2022-08-21T14:42:25;16.92;;;16.02;;
1136;SDS011;557;48.466;7.950;2022-08-21T14:45:13;17.20;;;16.30;;
1136;SDS011;557;48.466;7.950;2022-08-21T14:48:01;17.35;;;16.35;;
1136;SDS011;557;48.466;7.950;2022-08-21T14:50:47;18.20;;;17.20;;
1136;SDS011;557;48.466;7.950;2022-08-21T14:53:33;16.80;;;16.00;;
1136;SDS011;557;48.466;7.950;2022-08-21T14:56:20;16.88;;;15.98;;
1136;SDS011;557;48.466;7.950;2022-08-21T14:59:07;16.20;;;15.40;;
1136;SDS011;557;48.466;7.950;2022-08-21T15:01:53;16.50;;;15.70;;
1136;SDS011;557;48.466;7.950;2022-08-21T15:04:40;16.27;;;15.38;;
1136;SDS011;557;48.466;7.950;2022-08-21T15:07:26;16.20;;;15.30;;
1136;SDS011;557;48.466;7.950;2022-08-21T15:10:12;16.10;;;15.30;;
1136;SDS011;557;48.466;7.950;2022-08-21T15:12:59;16.50;;;15.70;;
1136;SDS011;557;48.466;7.950;2022-08-21T15:15:46;16.13;;;15.32;;
1136;SDS011;557;48.466;7.950;2022-08-21T15:18:36;16.40;;;15.60;;
1136;SDS011;557;48.466;7.950;2022-08-21T15:21:21;16.33;;;15.52;;
1136;SDS011;557;48.466;7.950;2022-08-21T15:24:07;16.83;;;15.93;;
1136;SDS011;557;48.466;7.950;2022-08-21T15:26:53;16.20;;;15.40;;
1136;SDS011;557;48.466;7.950;2022-08-21T15:29:42;16.27;;;15.40;;
1136;SDS011;557;48.466;7.950;2022-08-21T15:32:28;16.35;;;15.55;;
1136;SDS011;557;48.466;7.950;2022-08-21T15:35:15;16.20;;;15.40;;
1136;SDS011;557;48.466;7.950;2022-08-21T15:38:01;16.25;;;15.45;;
1136;SDS011;557;48.466;7.950;2022-08-21T15:40:47;15.57;;;14.82;;
1136;SDS011;557;48.466;7.950;2022-08-21T15:43:37;15.60;;;14.80;;
1136;SDS011;557;48.466;7.950;2022-08-21T15:46:28;16.20;;;15.32;;
1136;SDS011;557;48.466;7.950;2022-08-21T15:49:13;16.08;;;15.27;;
1136;SDS011;557;48.466;7.950;2022-08-21T15:51:59;16.13;;;15.32;;
1136;SDS011;557;48.466;7.950;2022-08-21T15:54:44;16.20;;;15.38;;
1136;SDS011;557;48.466;7.950;2022-08-21T15:57:30;17.25;;;16.25;;
1136;SDS011;557;48.466;7.950;2022-08-21T16:00:17;16.05;;;15.25;;
1136;SDS011;557;48.466;7.950;2022-08-21T16:03:08;16.00;;;15.20;;
1136;SDS011;557;48.466;7.950;2022-08-21T16:05:55;16.23;;;15.25;;
1136;SDS011;557;48.466;7.950;2022-08-21T16:14:26;15.85;;;15.05;;
1136;SDS011;557;48.466;7.950;2022-08-21T16:17:14;16.42;;;15.52;;
1136;SDS011;557;48.466;7.950;2022-08-21T16:20:02;15.93;;;15.13;;
1136;SDS011;557;48.466;7.950;2022-08-21T16:22:51;16.33;;;15.52;;
1136;SDS011;557;48.466;7.950;2022-08-21T16:25:38;15.95;;;15.15;;
1136;SDS011;557;48.466;7.950;2022-08-21T16:28:25;16.25;;;15.45;;
1136;SDS011;557;48.466;7.950;2022-08-21T16:31:11;16.10;;;15.30;;
1136;SDS011;557;48.466;7.950;2022-08-21T16:33:58;15.38;;;14.68;;
1136;SDS011;557;48.466;7.950;2022-08-21T16:36:46;15.52;;;14.77;;
1136;SDS011;557;48.466;7.950;2022-08-21T16:39:32;15.98;;;15.18;;
1136;SDS011;557;48.466;7.950;2022-08-21T16:42:18;15.70;;;14.90;;
1136;SDS011;557;48.466;7.950;2022-08-21T16:45:09;16.25;;;15.45;;
1136;SDS011;557;48.466;7.950;2022-08-21T16:47:56;15.73;;;14.82;;
1136;SDS011;557;48.466;7.950;2022-08-21T16:50:42;15.88;;;14.98;;
1136;SDS011;557;48.466;7.950;2022-08-21T16:53:32;15.35;;;14.63;;
1136;SDS011;557;48.466;7.950;2022-08-21T16:56:18;15.38;;;14.68;;
1136;SDS011;557;48.466;7.950;2022-08-21T16:59:04;15.55;;;14.75;;
1136;SDS011;557;48.466;7.950;2022-08-21T17:01:49;15.10;;;14.40;;
1136;SDS011;557;48.466;7.950;2022-08-21T17:04:37;15.63;;;14.90;;
1136;SDS011;557;48.466;7.950;2022-08-21T17:07:22;15.48;;;14.68;;
1136;SDS011;557;48.466;7.950;2022-08-21T17:10:11;15.40;;;14.60;;
1136;SDS011;557;48.466;7.950;2022-08-21T17:12:57;15.02;;;14.23;;
1136;SDS011;557;48.466;7.950;2022-08-21T17:15:43;15.52;;;14.68;;
1136;SDS011;557;48.466;7.950;2022-08-21T17:18:30;15.15;;;14.35;;
1136;SDS011;557;48.466;7.950;2022-08-21T17:21:16;15.30;;;14.50;;
1136;SDS011;557;48.466;7.950;2022-08-21T17:24:02;15.20;;;14.40;;
1136;SDS011;557;48.466;7.950;2022-08-21T17:26:50;15.57;;;14.68;;
1136;SDS011;557;48.466;7.950;2022-08-21T17:29:39;15.30;;;14.60;;
1136;SDS011;557;48.466;7.950;2022-08-21T17:32:25;15.60;;;14.80;;
1136;SDS011;557;48.466;7.950;2022-08-21T17:35:11;15.20;;;14.50;;
1136;SDS011;557;48.466;7.950;2022-08-21T17:37:57;15.32;;;14.63;;
1136;SDS011;557;48.466;7.950;2022-08-21T17:40:43;16.35;;;15.45;;
1136;SDS011;557;48.466;7.950;2022-08-21T17:43:31;15.43;;;14.63;;